createdAt,value
2023-05-10T00:00:20.589Z,955.14
2023-05-10T00:02:47.096Z,955.11
2023-05-10T00:05:13.438Z,955.07
2023-05-10T00:07:39.956Z,955.05
2023-05-10T00:10:06.429Z,955.08
2023-05-10T00:12:32.844Z,955.01
2023-05-10T00:14:59.290Z,955.02
2023-05-10T00:17:26.295Z,955.00
2023-05-10T00:19:52.759Z,955.06
2023-05-10T00:22:19.076Z,954.92
2023-05-10T00:24:45.556Z,954.96
2023-05-10T00:27:11.911Z,954.93
2023-05-10T00:29:38.406Z,954.88
2023-05-10T00:32:04.858Z,954.91
2023-05-10T00:34:31.286Z,954.97
2023-05-10T00:36:57.650Z,954.97
2023-05-10T00:39:24.089Z,954.93
2023-05-10T00:41:50.518Z,954.86
2023-05-10T00:44:16.993Z,954.83
2023-05-10T00:46:43.384Z,954.80
2023-05-10T00:49:09.756Z,954.85
2023-05-10T00:51:36.184Z,954.72
2023-05-10T00:54:02.528Z,954.80
2023-05-10T00:56:28.941Z,954.76
2023-05-10T00:58:55.305Z,954.79
2023-05-10T01:01:21.766Z,954.85
2023-05-10T01:03:48.103Z,954.77
2023-05-10T01:06:14.796Z,954.87
2023-05-10T01:08:41.255Z,954.73
2023-05-10T01:11:07.641Z,954.73
2023-05-10T01:13:34.247Z,954.72
2023-05-10T01:16:00.695Z,954.75
2023-05-10T01:18:27.040Z,954.70
2023-05-10T01:20:53.407Z,954.67
2023-05-10T01:23:19.795Z,954.68
2023-05-10T01:25:46.212Z,954.73
2023-05-10T01:28:12.656Z,954.63
2023-05-10T01:30:38.995Z,954.71
2023-05-10T01:33:05.477Z,954.69
2023-05-10T01:35:31.858Z,954.60
2023-05-10T01:37:58.271Z,954.70
2023-05-10T01:40:24.672Z,954.49
2023-05-10T01:42:51.097Z,954.55
2023-05-10T01:45:17.476Z,954.48
2023-05-10T01:47:43.911Z,954.42
2023-05-10T01:50:10.381Z,954.47
2023-05-10T01:52:36.744Z,954.44
2023-05-10T01:55:03.148Z,954.42
2023-05-10T01:57:29.531Z,954.50
2023-05-10T01:59:55.900Z,954.51
2023-05-10T02:02:22.338Z,954.49
2023-05-10T02:04:48.768Z,954.50
2023-05-10T02:07:15.150Z,954.56
2023-05-10T02:09:41.516Z,954.58
2023-05-10T02:12:07.935Z,954.52
2023-05-10T02:14:34.342Z,954.61
2023-05-10T02:17:00.785Z,954.62
2023-05-10T02:19:27.156Z,954.64
2023-05-10T02:21:53.526Z,954.61
2023-05-10T02:24:19.945Z,954.66
2023-05-10T02:26:46.387Z,954.57
2023-05-10T02:29:12.739Z,954.58
2023-05-10T02:31:39.194Z,954.58
2023-05-10T02:34:05.550Z,954.73
2023-05-10T02:36:31.918Z,954.64
2023-05-10T02:38:58.449Z,954.65
2023-05-10T02:41:24.831Z,954.63
2023-05-10T02:43:51.192Z,954.56
2023-05-10T02:46:17.733Z,954.75
2023-05-10T02:48:44.026Z,954.71
2023-05-10T02:51:10.441Z,954.65
2023-05-10T02:53:36.834Z,954.63
2023-05-10T02:56:03.230Z,954.61
2023-05-10T02:58:29.652Z,954.58
2023-05-10T03:00:56.073Z,954.56
2023-05-10T03:03:22.439Z,954.61
2023-05-10T03:05:48.863Z,954.56
2023-05-10T03:08:15.229Z,954.54
2023-05-10T03:10:41.747Z,954.55
2023-05-10T03:13:08.268Z,954.67
2023-05-10T03:15:34.545Z,954.83
2023-05-10T03:18:01.044Z,954.70
2023-05-10T03:20:27.383Z,954.71
2023-05-10T03:22:53.736Z,954.77
2023-05-10T03:25:20.124Z,954.64
2023-05-10T03:27:46.504Z,954.78
2023-05-10T03:30:12.948Z,954.78
2023-05-10T03:32:41.956Z,954.82
2023-05-10T03:35:05.771Z,954.76
2023-05-10T03:37:32.201Z,954.79
2023-05-10T03:39:58.868Z,954.72
2023-05-10T03:42:25.287Z,954.81
2023-05-10T03:44:51.670Z,954.75
2023-05-10T03:47:18.081Z,954.82
2023-05-10T03:49:44.570Z,954.77
2023-05-10T03:52:11.070Z,954.74
2023-05-10T03:54:37.541Z,954.79
2023-05-10T03:57:03.901Z,954.93
2023-05-10T03:59:30.311Z,954.81
2023-05-10T04:01:56.810Z,954.94
2023-05-10T04:04:23.245Z,954.98
2023-05-10T04:06:49.750Z,954.84
2023-05-10T04:09:16.171Z,955.18
2023-05-10T04:11:42.546Z,954.96
2023-05-10T04:14:08.922Z,954.92
2023-05-10T04:16:35.430Z,955.06
2023-05-10T04:19:01.796Z,955.03
2023-05-10T04:21:28.264Z,954.99
2023-05-10T04:23:54.787Z,955.13
2023-05-10T04:26:21.181Z,955.07
2023-05-10T04:28:47.617Z,955.10
2023-05-10T04:31:14.196Z,954.93
2023-05-10T04:33:40.657Z,955.02
2023-05-10T04:36:07.002Z,955.04
2023-05-10T04:38:33.435Z,955.04
2023-05-10T04:40:59.950Z,955.12
2023-05-10T04:43:26.408Z,955.06
2023-05-10T04:45:52.778Z,955.03
2023-05-10T04:48:19.278Z,955.05
2023-05-10T04:50:45.706Z,954.98
2023-05-10T04:53:13.160Z,954.99
2023-05-10T04:55:38.729Z,955.03
2023-05-10T04:58:05.172Z,955.01
2023-05-10T05:00:31.610Z,955.03
2023-05-10T05:02:58.103Z,955.09
2023-05-10T05:05:24.444Z,954.98
2023-05-10T05:07:50.837Z,955.01
2023-05-10T05:10:17.528Z,955.02
2023-05-10T05:12:43.954Z,955.17
2023-05-10T05:15:10.272Z,955.14
2023-05-10T05:17:36.816Z,955.13
2023-05-10T05:20:03.117Z,955.04
2023-05-10T05:22:29.626Z,955.11
2023-05-10T05:24:56.414Z,955.06
2023-05-10T05:27:22.842Z,955.16
2023-05-10T05:29:49.385Z,955.26
2023-05-10T05:32:17.188Z,955.13
2023-05-10T05:34:42.434Z,955.24
2023-05-10T05:37:08.941Z,955.19
2023-05-10T05:39:37.426Z,955.22
2023-05-10T05:42:01.982Z,955.26
2023-05-10T05:44:28.478Z,955.29
2023-05-10T05:46:56.859Z,955.19
2023-05-10T05:49:23.400Z,955.20
2023-05-10T05:51:49.958Z,955.23
2023-05-10T05:54:16.320Z,955.29
2023-05-10T05:56:44.246Z,955.34
2023-05-10T05:59:09.337Z,955.27
2023-05-10T06:01:35.791Z,955.42
2023-05-10T06:04:02.539Z,955.34
2023-05-10T06:06:28.803Z,955.29
2023-05-10T06:08:55.270Z,955.37
2023-05-10T06:11:21.670Z,955.30
2023-05-10T06:13:48.371Z,955.34
2023-05-10T06:16:14.867Z,955.45
2023-05-10T06:18:41.254Z,955.34
2023-05-10T06:21:07.666Z,955.36
2023-05-10T06:23:34.180Z,955.49
2023-05-10T06:26:00.635Z,955.44
2023-05-10T06:28:27.230Z,955.57
2023-05-10T06:30:56.654Z,955.50
2023-05-10T06:33:23.066Z,955.42
2023-05-10T06:35:49.632Z,955.53
2023-05-10T06:38:16.367Z,955.47
2023-05-10T06:40:42.985Z,955.40
2023-05-10T06:43:09.497Z,955.41
2023-05-10T06:45:35.966Z,955.39
2023-05-10T06:48:02.501Z,955.44
2023-05-10T06:50:29.010Z,955.42
2023-05-10T06:52:55.503Z,955.46
2023-05-10T06:55:21.957Z,955.49
2023-05-10T06:57:48.448Z,955.43
2023-05-10T07:00:15.109Z,955.59
2023-05-10T07:02:41.360Z,955.61
2023-05-10T07:05:07.852Z,955.46
2023-05-10T07:07:34.357Z,955.58
2023-05-10T07:10:00.904Z,955.52
2023-05-10T07:12:27.553Z,955.57
2023-05-10T07:14:53.813Z,955.59
2023-05-10T07:17:20.315Z,955.51
2023-05-10T07:19:46.733Z,955.52
2023-05-10T07:22:13.259Z,955.63
2023-05-10T07:24:39.825Z,955.55
2023-05-10T07:27:15.084Z,955.60
2023-05-10T07:29:38.851Z,955.65
2023-05-10T07:32:05.502Z,955.62
2023-05-10T07:34:31.934Z,955.67
2023-05-10T07:36:58.447Z,955.87
2023-05-10T07:39:27.768Z,955.62
2023-05-10T07:41:51.473Z,955.63
2023-05-10T07:44:17.899Z,955.79
2023-05-10T07:46:44.467Z,955.71
2023-05-10T07:49:10.908Z,955.73
2023-05-10T07:51:37.329Z,955.77
2023-05-10T07:54:03.772Z,955.72
2023-05-10T07:56:30.190Z,955.75
2023-05-10T07:58:56.723Z,955.69
2023-05-10T08:01:23.148Z,955.72
2023-05-10T08:03:49.690Z,956.06
2023-05-10T08:06:16.168Z,955.69
2023-05-10T08:08:44.731Z,955.69
2023-05-10T08:11:09.140Z,955.71
2023-05-10T08:13:35.554Z,955.93
2023-05-10T08:16:02.010Z,955.70
2023-05-10T08:18:28.483Z,955.90
2023-05-10T08:20:54.876Z,955.89
2023-05-10T08:23:21.446Z,955.86
2023-05-10T08:25:47.819Z,955.74
2023-05-10T08:28:14.265Z,955.90
2023-05-10T08:30:40.699Z,955.71
2023-05-10T08:33:07.314Z,956.07
2023-05-10T08:35:33.736Z,955.85
2023-05-10T08:38:00.248Z,955.89
2023-05-10T08:40:26.740Z,955.80
2023-05-10T08:42:53.256Z,955.79
2023-05-10T08:45:20.126Z,955.85
2023-05-10T08:47:46.520Z,955.94
2023-05-10T08:50:12.821Z,955.93
2023-05-10T08:52:39.217Z,955.92
2023-05-10T08:55:05.785Z,955.83
2023-05-10T08:57:32.387Z,955.73
2023-05-10T08:59:58.736Z,955.80
2023-05-10T09:02:25.241Z,955.95
2023-05-10T09:04:51.787Z,955.98
2023-05-10T09:07:18.147Z,955.79
2023-05-10T09:09:44.521Z,955.77
2023-05-10T09:12:11.099Z,955.77
2023-05-10T09:14:37.706Z,955.74
2023-05-10T09:17:04.227Z,955.97
2023-05-10T09:19:30.762Z,955.76
2023-05-10T09:21:57.242Z,955.71
2023-05-10T09:24:23.769Z,955.81
2023-05-10T09:26:50.210Z,955.71
2023-05-10T09:29:17.723Z,955.74
2023-05-10T09:31:43.055Z,955.77
2023-05-10T09:34:09.767Z,955.78
2023-05-10T09:36:36.097Z,955.69
2023-05-10T09:39:02.655Z,955.82
2023-05-10T09:41:29.090Z,955.78
2023-05-10T09:43:55.510Z,955.65
2023-05-10T09:46:22.021Z,955.63
2023-05-10T09:48:48.441Z,955.68
2023-05-10T09:51:14.904Z,955.75
2023-05-10T09:53:41.272Z,955.56
2023-05-10T09:56:07.730Z,955.62
2023-05-10T09:58:34.059Z,955.68
2023-05-10T10:01:00.625Z,955.56
2023-05-10T10:03:28.948Z,955.53
2023-05-10T10:05:53.527Z,955.42
2023-05-10T10:08:19.998Z,955.57
2023-05-10T10:10:47.090Z,955.58
2023-05-10T10:13:15.217Z,955.61
2023-05-10T10:15:39.925Z,955.49
2023-05-10T10:18:06.365Z,955.41
2023-05-10T10:20:32.840Z,955.35
2023-05-10T10:22:59.290Z,955.35
2023-05-10T10:25:25.748Z,955.36
2023-05-10T10:27:52.216Z,955.43
2023-05-10T10:30:18.694Z,955.50
2023-05-10T10:32:45.185Z,955.49
2023-05-10T10:35:11.561Z,955.43
2023-05-10T10:37:38.042Z,955.42
2023-05-10T10:40:04.442Z,955.46
2023-05-10T10:42:30.856Z,955.47
2023-05-10T10:44:57.296Z,955.32
2023-05-10T10:47:23.873Z,955.34
2023-05-10T10:49:50.250Z,955.43
2023-05-10T10:52:16.751Z,955.42
2023-05-10T10:54:43.175Z,955.42
2023-05-10T10:57:09.529Z,955.41
2023-05-10T10:59:36.089Z,955.33
2023-05-10T11:02:02.577Z,955.43
2023-05-10T11:04:29.064Z,955.40
2023-05-10T11:06:55.387Z,955.33
2023-05-10T11:09:21.832Z,955.39
2023-05-10T11:11:48.252Z,955.40
2023-05-10T11:14:14.736Z,955.38
2023-05-10T11:16:41.182Z,955.38
2023-05-10T11:19:07.873Z,955.28
2023-05-10T11:21:34.141Z,955.29
2023-05-10T11:24:00.625Z,955.25
2023-05-10T11:26:27.299Z,955.30
2023-05-10T11:28:53.516Z,955.41
2023-05-10T11:31:20.129Z,955.35
2023-05-10T11:33:46.364Z,955.31
2023-05-10T11:36:13.070Z,955.32
2023-05-10T11:38:39.519Z,955.32
2023-05-10T11:41:05.973Z,955.27
2023-05-10T11:43:32.342Z,955.56
2023-05-10T11:45:58.795Z,955.40
2023-05-10T11:48:25.235Z,955.46
2023-05-10T11:50:51.709Z,955.37
2023-05-10T11:53:18.124Z,955.40
2023-05-10T11:55:44.974Z,955.37
2023-05-10T11:58:11.410Z,955.21
2023-05-10T12:00:37.800Z,955.22
2023-05-10T12:03:04.307Z,955.27
2023-05-10T12:05:30.644Z,955.27
2023-05-10T12:07:57.068Z,955.24
2023-05-10T12:10:23.523Z,955.37
2023-05-10T12:12:50.065Z,955.23
2023-05-10T12:15:16.676Z,955.22
2023-05-10T12:17:43.503Z,955.17
2023-05-10T12:20:09.566Z,955.14
2023-05-10T12:22:36.159Z,955.22
2023-05-10T12:25:02.530Z,955.21
2023-05-10T12:27:28.971Z,955.21
2023-05-10T12:29:55.290Z,955.15
2023-05-10T12:32:21.808Z,955.15
2023-05-10T12:34:48.101Z,955.14
2023-05-10T12:37:14.490Z,955.23
2023-05-10T12:39:40.897Z,955.13
2023-05-10T12:42:07.258Z,955.05
2023-05-10T12:44:33.664Z,955.01
2023-05-10T12:47:00.109Z,954.94
2023-05-10T12:49:26.458Z,954.98
2023-05-10T12:51:52.933Z,954.98
2023-05-10T12:54:19.405Z,954.85
2023-05-10T12:56:45.823Z,954.90
2023-05-10T12:59:12.184Z,955.02
2023-05-10T13:01:38.735Z,954.88
2023-05-10T13:04:04.997Z,954.89
2023-05-10T13:06:31.295Z,954.80
2023-05-10T13:08:57.581Z,954.87
2023-05-10T13:11:24.020Z,954.75
2023-05-10T13:13:50.395Z,954.80
2023-05-10T13:16:19.103Z,954.75
2023-05-10T13:18:43.116Z,954.76
2023-05-10T13:21:09.442Z,954.66
2023-05-10T13:23:35.860Z,954.63
2023-05-10T13:26:02.247Z,954.66
2023-05-10T13:28:28.634Z,954.81
2023-05-10T13:30:54.985Z,954.84
2023-05-10T13:33:21.373Z,954.67
2023-05-10T13:35:48.057Z,954.59
2023-05-10T13:38:14.345Z,954.47
2023-05-10T13:40:40.690Z,954.49
2023-05-10T13:43:07.099Z,954.63
2023-05-10T13:45:33.456Z,954.52
2023-05-10T13:47:59.964Z,954.48
2023-05-10T13:50:26.194Z,954.53
2023-05-10T13:52:52.573Z,954.49
2023-05-10T13:55:19.214Z,954.59
2023-05-10T13:57:45.238Z,954.46
2023-05-10T14:00:11.603Z,954.39
2023-05-10T14:02:38.127Z,954.50
2023-05-10T14:05:04.249Z,954.42
2023-05-10T14:07:30.610Z,954.50
2023-05-10T14:09:57.006Z,954.61
2023-05-10T14:12:23.401Z,954.43
2023-05-10T14:14:52.268Z,954.50
2023-05-10T14:17:16.176Z,954.63
2023-05-10T14:19:42.520Z,954.65
2023-05-10T14:22:08.863Z,954.59
2023-05-10T14:24:35.294Z,954.46
2023-05-10T14:27:01.698Z,954.46
2023-05-10T14:29:28.081Z,954.54
2023-05-10T14:31:54.439Z,954.58
2023-05-10T14:34:20.769Z,954.58
2023-05-10T14:36:47.146Z,954.61
2023-05-10T14:39:13.529Z,954.57
2023-05-10T14:41:39.950Z,954.66
2023-05-10T14:44:06.304Z,954.48
2023-05-10T14:46:32.797Z,954.46
2023-05-10T14:48:59.060Z,954.48
2023-05-10T14:51:25.409Z,954.41
2023-05-10T14:53:51.928Z,954.38
2023-05-10T14:56:18.298Z,954.42
2023-05-10T14:58:44.641Z,954.47
2023-05-10T15:01:11.018Z,954.48
2023-05-10T15:03:37.461Z,954.49
2023-05-10T15:06:03.743Z,954.38
2023-05-10T15:08:30.174Z,954.49
2023-05-10T15:10:56.643Z,954.44
2023-05-10T15:13:22.911Z,954.36
2023-05-10T15:15:49.280Z,954.42
2023-05-10T15:18:15.591Z,954.29
2023-05-10T15:20:41.969Z,954.35
2023-05-10T15:23:08.333Z,954.31
2023-05-10T15:25:34.636Z,954.23
2023-05-10T15:28:00.970Z,954.20
2023-05-10T15:30:27.369Z,954.35
2023-05-10T15:32:53.718Z,954.16
2023-05-10T15:35:20.036Z,954.20
2023-05-10T15:37:46.402Z,954.30
2023-05-10T15:40:12.752Z,954.30
2023-05-10T15:42:39.250Z,954.22
2023-05-10T15:45:05.558Z,954.24
2023-05-10T15:47:31.933Z,954.24
2023-05-10T15:49:58.312Z,954.16
2023-05-10T15:52:24.707Z,954.25
2023-05-10T15:54:51.124Z,954.27
2023-05-10T15:57:17.476Z,954.18
2023-05-10T15:59:43.886Z,954.30
2023-05-10T16:02:10.613Z,954.23
2023-05-10T16:04:37.017Z,954.23
2023-05-10T16:07:05.424Z,954.22
2023-05-10T16:09:34.965Z,954.33
2023-05-10T16:12:01.354Z,954.23
2023-05-10T16:14:27.765Z,954.22
2023-05-10T16:16:54.213Z,954.34
2023-05-10T16:19:20.693Z,954.45
2023-05-10T16:21:46.985Z,954.23
2023-05-10T16:24:13.367Z,954.12
2023-05-10T16:26:39.704Z,954.24
2023-05-10T16:29:06.124Z,954.23
2023-05-10T16:31:32.601Z,954.16
2023-05-10T16:33:58.873Z,954.15
2023-05-10T16:36:25.305Z,954.44
2023-05-10T16:38:51.666Z,954.33
2023-05-10T16:41:18.082Z,954.24
2023-05-10T16:43:44.489Z,954.38
2023-05-10T16:46:13.302Z,954.25
2023-05-10T16:48:39.729Z,954.27
2023-05-10T16:51:06.169Z,954.29
2023-05-10T16:53:32.608Z,954.38
2023-05-10T16:55:59.021Z,954.31
2023-05-10T16:58:25.587Z,954.33
2023-05-10T17:00:51.963Z,954.45
2023-05-10T17:03:18.403Z,954.28
2023-05-10T17:05:44.844Z,954.25
2023-05-10T17:08:11.225Z,954.26
2023-05-10T17:10:38.639Z,954.41
2023-05-10T17:13:05.013Z,954.37
2023-05-10T17:15:31.510Z,954.33
2023-05-10T17:17:57.918Z,954.39
2023-05-10T17:20:24.392Z,954.36
2023-05-10T17:22:51.075Z,954.33
2023-05-10T17:25:17.639Z,954.40
2023-05-10T17:27:43.832Z,954.38
2023-05-10T17:30:10.231Z,954.43
2023-05-10T17:32:36.677Z,954.41
2023-05-10T17:35:03.025Z,954.46
2023-05-10T17:37:29.957Z,954.47
2023-05-10T17:39:56.328Z,954.48
2023-05-10T17:42:22.736Z,954.51
2023-05-10T17:44:49.194Z,954.45
2023-05-10T17:47:15.610Z,954.50
2023-05-10T17:49:42.033Z,954.56
2023-05-10T17:52:08.449Z,954.64
2023-05-10T17:54:36.110Z,954.54
2023-05-10T17:57:02.543Z,954.58
2023-05-10T17:59:29.034Z,954.56
2023-05-10T18:01:55.632Z,954.61
2023-05-10T18:04:22.040Z,954.66
2023-05-10T18:06:48.651Z,954.65
2023-05-10T18:09:15.168Z,954.76
2023-05-10T18:11:41.549Z,954.84
2023-05-10T18:14:08.080Z,954.85
2023-05-10T18:16:34.544Z,954.90
2023-05-10T18:19:00.865Z,954.88
2023-05-10T18:21:28.291Z,954.88
2023-05-10T18:23:54.979Z,954.90
2023-05-10T18:26:23.810Z,954.87
2023-05-10T18:28:50.164Z,954.90
2023-05-10T18:31:16.755Z,954.98
2023-05-10T18:33:43.128Z,954.93
2023-05-10T18:36:09.525Z,954.98
2023-05-10T18:38:35.968Z,954.96
2023-05-10T18:41:02.560Z,955.05
2023-05-10T18:43:29.169Z,955.11
2023-05-10T18:45:55.621Z,955.11
2023-05-10T18:48:22.013Z,955.09
2023-05-10T18:50:48.388Z,955.17
2023-05-10T18:53:14.779Z,955.12
2023-05-10T18:55:41.156Z,955.13
2023-05-10T18:58:07.537Z,955.09
2023-05-10T19:00:33.931Z,955.12
2023-05-10T19:03:00.636Z,955.09
2023-05-10T19:05:26.997Z,955.10
2023-05-10T19:07:53.405Z,955.16
2023-05-10T19:10:19.827Z,955.06
2023-05-10T19:12:46.237Z,955.10
2023-05-10T19:15:12.721Z,955.08
2023-05-10T19:17:41.518Z,955.05
2023-05-10T19:20:11.033Z,955.06
2023-05-10T19:25:06.379Z,955.07
2023-05-10T19:27:33.568Z,955.14
2023-05-10T19:29:59.949Z,955.18
2023-05-10T19:32:26.766Z,955.19
2023-05-10T19:34:53.896Z,955.20
2023-05-10T19:37:20.446Z,955.20
2023-05-10T19:39:46.842Z,955.19
2023-05-10T19:42:13.324Z,955.17
2023-05-10T19:44:39.863Z,955.16
2023-05-10T19:47:06.303Z,955.20
2023-05-10T19:49:34.948Z,955.12
2023-05-10T19:52:01.328Z,955.13
2023-05-10T19:54:28.034Z,955.15
2023-05-10T20:05:06.828Z,954.95
2023-05-10T20:07:33.340Z,955.00
2023-05-10T20:09:59.923Z,954.97
2023-05-10T20:12:26.961Z,954.97
2023-05-10T20:14:53.332Z,954.94
2023-05-10T20:17:19.726Z,954.98
2023-05-10T20:19:46.497Z,954.96
2023-05-10T20:22:12.925Z,954.89
2023-05-10T20:24:39.337Z,954.90
2023-05-10T20:27:05.836Z,954.99
2023-05-10T20:29:32.200Z,954.96
2023-05-10T20:31:59.799Z,955.08
2023-05-10T20:34:26.092Z,955.03
2023-05-10T20:36:52.555Z,954.96
2023-05-10T20:39:18.964Z,955.04
2023-05-10T20:41:45.390Z,955.11
2023-05-10T20:44:11.830Z,955.06
2023-05-10T20:46:38.327Z,955.04
2023-05-10T20:49:04.637Z,955.00
2023-05-10T20:51:31.075Z,954.95
2023-05-10T20:53:57.455Z,955.00
2023-05-10T20:56:23.817Z,955.01
2023-05-10T20:58:50.264Z,954.88
2023-05-10T21:01:16.918Z,954.99
2023-05-10T21:03:43.271Z,954.92
2023-05-10T21:06:09.734Z,954.95
2023-05-10T21:08:36.109Z,954.98
2023-05-10T21:11:02.622Z,954.95
2023-05-10T21:13:29.063Z,954.97
2023-05-10T21:15:55.518Z,954.94
2023-05-10T21:18:21.930Z,954.99
2023-05-10T21:20:48.318Z,955.00
2023-05-10T21:23:14.671Z,955.04
2023-05-10T21:25:41.099Z,954.98
2023-05-10T21:28:07.534Z,954.93
2023-05-10T21:30:33.884Z,954.97
2023-05-10T21:33:00.314Z,954.96
2023-05-10T21:35:26.926Z,954.95
2023-05-10T21:37:53.331Z,954.93
2023-05-10T21:40:19.899Z,954.95
2023-05-10T21:42:46.060Z,954.87
2023-05-10T21:45:12.474Z,954.94
2023-05-10T21:47:38.915Z,954.93
2023-05-10T21:50:05.295Z,954.91
2023-05-10T21:52:31.747Z,954.97
2023-05-10T21:54:58.131Z,954.87
2023-05-10T21:57:24.530Z,954.93
2023-05-10T21:59:50.969Z,954.94
2023-05-10T22:02:17.403Z,954.87
2023-05-10T22:04:43.770Z,954.97
2023-05-10T22:07:10.200Z,954.86
2023-05-10T22:09:36.608Z,954.92
2023-05-10T22:12:03.045Z,954.88
2023-05-10T22:14:29.495Z,954.94
2023-05-10T22:16:55.862Z,954.90
2023-05-10T22:19:22.273Z,954.90
2023-05-10T22:27:17.109Z,954.93
2023-05-10T22:29:43.461Z,954.93
2023-05-10T22:32:09.882Z,954.87
2023-05-10T22:34:36.330Z,954.85
2023-05-10T22:37:02.767Z,954.92
2023-05-10T22:39:29.264Z,954.77
2023-05-10T22:41:55.651Z,954.77
2023-05-10T22:44:22.078Z,954.81
2023-05-10T22:46:48.457Z,954.71
2023-05-10T22:49:14.887Z,954.70
2023-05-10T22:51:41.249Z,954.84
2023-05-10T22:54:07.669Z,954.80
2023-05-10T22:56:34.092Z,954.73
2023-05-10T22:59:00.437Z,954.72
2023-05-10T23:01:26.880Z,954.75
2023-05-10T23:03:53.333Z,954.73
2023-05-10T23:06:19.727Z,954.70
2023-05-10T23:08:46.140Z,954.67
2023-05-10T23:11:12.508Z,954.59
2023-05-10T23:13:38.931Z,954.70
2023-05-10T23:16:05.353Z,954.67
2023-05-10T23:18:31.763Z,954.65
2023-05-10T23:20:58.123Z,954.58
2023-05-10T23:23:24.588Z,954.52
2023-05-10T23:25:50.938Z,954.57
2023-05-10T23:28:17.323Z,954.62
2023-05-10T23:30:43.757Z,954.59
2023-05-10T23:33:10.162Z,954.59
2023-05-10T23:35:36.530Z,954.61
2023-05-10T23:38:02.939Z,954.60
2023-05-10T23:40:29.280Z,954.55
2023-05-10T23:42:55.682Z,954.60
2023-05-10T23:45:22.106Z,954.49
2023-05-10T23:47:48.541Z,954.55
2023-05-10T23:50:14.958Z,954.50
2023-05-10T23:52:41.314Z,954.52
2023-05-10T23:55:07.685Z,954.52
2023-05-10T23:57:34.084Z,954.48
